Time;durP1;ratioP1;P1;durP2;ratioP2;P2;SDS_P1;SDS_P2;PMS_P1;PMS_P2;Temp;Humidity;BMP_temperature;BMP_pressure;BME280_temperature;BME280_humidity;BME280_pressure;Samples;Min_cycle;Max_cycle;Signal;HPM_P1;HPM_P2
2023/03/27 00:01:48;;;;;;;5.80;1.20;;;6.60;99.90;;;;;;4964936;28;20509;-73
2023/03/27 00:04:14;;;;;;;2.50;0.90;;;6.60;99.90;;;;;;4959271;28;20125;-73
2023/03/27 00:06:40;;;;;;;5.75;1.30;;;6.60;99.90;;;;;;4978567;28;20030;-73
2023/03/27 00:09:07;;;;;;;6.90;1.23;;;6.60;99.90;;;;;;4962540;28;20038;-73
2023/03/27 00:11:33;;;;;;;3.88;1.15;;;6.60;99.90;;;;;;4975706;28;20129;-73
2023/03/27 00:13:59;;;;;;;3.25;1.10;;;6.60;99.90;;;;;;4971447;28;20038;-74
2023/03/27 00:16:26;;;;;;;2.90;1.00;;;6.60;99.90;;;;;;4976806;28;20030;-74
2023/03/27 00:18:53;;;;;;;4.97;1.15;;;6.60;99.90;;;;;;4980955;28;20030;-73
2023/03/27 00:21:19;;;;;;;7.68;1.10;;;6.60;99.90;;;;;;4961305;28;20095;-74
2023/03/27 00:23:45;;;;;;;4.68;0.93;;;6.60;99.90;;;;;;4977224;28;20599;-73
2023/03/27 00:26:11;;;;;;;5.00;1.30;;;6.60;99.90;;;;;;4978083;28;20026;-73
2023/03/27 00:28:37;;;;;;;6.68;1.50;;;6.60;99.90;;;;;;4973692;28;20041;-73
2023/03/27 00:31:02;;;;;;;4.90;0.98;;;6.60;99.90;;;;;;4978182;28;20073;-74
2023/03/27 00:33:28;;;;;;;4.50;1.00;;;6.60;99.90;;;;;;4957592;28;20035;-74
2023/03/27 00:35:54;;;;;;;7.30;1.30;;;6.50;99.90;;;;;;4961218;28;20035;-74
2023/03/27 00:38:20;;;;;;;6.90;1.00;;;6.50;99.90;;;;;;4979554;28;20968;-74
2023/03/27 00:40:47;;;;;;;7.45;1.13;;;6.50;99.90;;;;;;4976426;28;20069;-73
2023/03/27 00:43:27;;;;;;;2.28;1.05;;;6.50;99.90;;;;;;4969674;28;20060;-74
2023/03/27 00:46:16;;;;;;;2.83;0.88;;;6.50;99.90;;;;;;4974363;28;20038;-73
2023/03/27 00:48:46;;;;;;;5.07;1.10;;;6.40;99.90;;;;;;4955088;28;20046;-74
2023/03/27 00:51:13;;;;;;;8.27;1.20;;;6.40;99.90;;;;;;4960091;28;20041;-74
2023/03/27 00:53:39;;;;;;;3.22;0.93;;;6.40;99.90;;;;;;4976488;28;20438;-73
2023/03/27 00:56:06;;;;;;;5.85;1.38;;;6.40;99.90;;;;;;4978722;28;20538;-73
2023/03/27 00:58:45;;;;;;;4.90;1.23;;;6.50;99.90;;;;;;4976903;28;20046;-73
2023/03/27 01:01:13;;;;;;;4.80;1.17;;;6.40;99.90;;;;;;4977691;28;20042;-73
2023/03/27 01:03:42;;;;;;;12.00;1.45;;;6.50;99.90;;;;;;4969820;28;20486;-74
2023/03/27 01:06:10;;;;;;;3.25;1.00;;;6.40;99.90;;;;;;4977141;28;20031;-74
2023/03/27 01:08:36;;;;;;;5.53;1.40;;;6.40;99.90;;;;;;4975936;28;20094;-74
2023/03/27 01:11:37;;;;;;;3.75;0.88;;;6.40;99.90;;;;;;4979883;28;20026;-73
2023/03/27 01:14:11;;;;;;;4.35;1.08;;;6.40;99.90;;;;;;4976464;28;20038;-74
2023/03/27 01:17:05;;;;;;;3.22;1.10;;;6.40;99.90;;;;;;4959342;28;20042;-73
2023/03/27 01:20:03;;;;;;;5.57;0.98;;;6.30;99.90;;;;;;4962509;28;20614;-74
2023/03/27 01:22:53;;;;;;;4.47;1.00;;;6.40;99.90;;;;;;4938610;28;20042;-74
2023/03/27 01:26:08;;;;;;;6.47;1.13;;;6.40;99.90;;;;;;4976332;28;20030;-73
2023/03/27 01:28:56;;;;;;;5.72;1.05;;;6.40;99.90;;;;;;4880311;29;20127;-73
2023/03/27 01:31:40;;;;;;;4.53;0.90;;;6.40;99.90;;;;;;4879924;29;20497;-73
2023/03/27 01:34:26;;;;;;;5.75;1.40;;;6.40;99.90;;;;;;4957162;28;20459;-74
2023/03/27 01:37:16;;;;;;;3.03;0.80;;;6.40;99.90;;;;;;4964309;28;20027;-73
2023/03/27 01:39:52;;;;;;;4.43;1.05;;;6.40;99.90;;;;;;4959464;28;20031;-74
2023/03/27 01:42:22;;;;;;;4.90;1.33;;;6.40;99.90;;;;;;4947324;28;20031;-73
2023/03/27 01:45:07;;;;;;;8.95;1.25;;;6.30;99.90;;;;;;4976841;28;20058;-74
2023/03/27 01:47:49;;;;;;;5.72;1.17;;;6.30;99.90;;;;;;4974868;28;20101;-73
2023/03/27 01:50:40;;;;;;;3.80;1.17;;;6.30;99.90;;;;;;4966401;28;20065;-74
2023/03/27 01:53:14;;;;;;;6.47;1.20;;;6.30;99.90;;;;;;4961587;28;20035;-73
2023/03/27 01:55:45;;;;;;;3.20;1.02;;;6.30;99.90;;;;;;4956260;28;20112;-74
2023/03/27 01:58:32;;;;;;;2.53;1.20;;;6.40;99.90;;;;;;4962347;28;20351;-74
2023/03/27 02:01:00;;;;;;;5.20;0.98;;;6.30;99.90;;;;;;4940773;28;20548;-73
2023/03/27 02:03:42;;;;;;;5.63;1.00;;;6.30;99.90;;;;;;4964134;28;20057;-73
2023/03/27 02:06:15;;;;;;;9.55;1.35;;;6.20;99.90;;;;;;4974611;28;20018;-73
2023/03/27 02:08:49;;;;;;;6.22;1.30;;;6.20;99.90;;;;;;4961595;28;20069;-73
2023/03/27 02:11:16;;;;;;;5.00;1.10;;;6.20;99.90;;;;;;4964018;28;20085;-73
2023/03/27 02:13:53;;;;;;;5.53;1.13;;;6.30;99.90;;;;;;4972541;28;20053;-73
2023/03/27 02:16:25;;;;;;;6.22;1.23;;;6.30;99.90;;;;;;4963276;28;20034;-73
2023/03/27 02:18:57;;;;;;;6.00;1.35;;;6.20;99.90;;;;;;4953497;28;20034;-73
2023/03/27 02:21:23;;;;;;;3.38;1.27;;;6.20;99.90;;;;;;4962065;28;20033;-73
2023/03/27 02:23:49;;;;;;;8.23;1.20;;;6.10;99.90;;;;;;4952899;28;20500;-73
2023/03/27 02:26:15;;;;;;;7.03;1.05;;;6.10;99.90;;;;;;4974243;28;20355;-74
2023/03/27 02:28:40;;;;;;;5.93;1.13;;;6.20;99.90;;;;;;4971744;28;20038;-74
2023/03/27 02:31:30;;;;;;;8.27;1.00;;;6.20;99.90;;;;;;4954455;28;20032;-73
2023/03/27 02:34:10;;;;;;;4.82;1.00;;;6.20;99.90;;;;;;4970262;28;20463;-73
2023/03/27 02:37:00;;;;;;;4.10;1.10;;;6.20;99.90;;;;;;4973836;28;20042;-73
2023/03/27 02:39:40;;;;;;;5.25;1.40;;;6.20;99.90;;;;;;4956805;28;20038;-73
2023/03/27 02:42:53;;;;;;;3.63;1.10;;;6.20;99.90;;;;;;4973253;28;20446;-73
2023/03/27 02:45:30;;;;;;;6.18;1.20;;;6.10;99.90;;;;;;4956492;28;20113;-73
2023/03/27 02:48:13;;;;;;;4.38;1.38;;;6.10;99.90;;;;;;4938649;28;20038;-73
2023/03/27 02:50:45;;;;;;;4.97;0.93;;;6.10;99.90;;;;;;4962901;28;20038;-73
2023/03/27 02:53:15;;;;;;;5.05;1.15;;;6.10;99.90;;;;;;4955664;28;20030;-73
2023/03/27 02:55:49;;;;;;;7.28;1.58;;;6.10;99.90;;;;;;4974008;28;20022;-73
2023/03/27 02:58:25;;;;;;;5.43;1.45;;;6.00;99.90;;;;;;4946521;28;20034;-73
2023/03/27 03:00:52;;;;;;;4.78;1.95;;;6.00;99.90;;;;;;4957648;28;20026;-73
2023/03/27 03:03:29;;;;;;;7.32;1.17;;;5.90;99.90;;;;;;4972389;28;20077;-73
2023/03/27 03:05:55;;;;;;;6.35;1.48;;;5.90;99.90;;;;;;4978012;28;20231;-73
2023/03/27 03:08:22;;;;;;;5.38;1.08;;;5.90;99.90;;;;;;4974684;28;20047;-73
2023/03/27 03:10:48;;;;;;;4.13;1.00;;;5.90;99.90;;;;;;4977299;28;20038;-73
2023/03/27 03:13:17;;;;;;;4.22;1.17;;;5.90;99.90;;;;;;4959894;28;20026;-73
2023/03/27 03:15:44;;;;;;;6.97;1.13;;;5.80;99.90;;;;;;4959785;28;20351;-73
2023/03/27 03:18:11;;;;;;;4.38;1.10;;;5.90;99.90;;;;;;4975063;28;20273;-73
2023/03/27 03:20:38;;;;;;;5.22;1.20;;;5.90;99.90;;;;;;4963776;28;20052;-73
2023/03/27 03:23:04;;;;;;;6.88;1.30;;;5.90;99.90;;;;;;4960488;28;20030;-73
2023/03/27 03:25:30;;;;;;;3.88;1.00;;;6.00;99.90;;;;;;4979091;28;20033;-73
2023/03/27 03:28:00;;;;;;;6.43;1.23;;;6.00;99.90;;;;;;4945665;28;20117;-73
2023/03/27 03:30:29;;;;;;;6.70;1.35;;;5.90;99.90;;;;;;4970610;28;20030;-72
2023/03/27 03:32:56;;;;;;;3.60;1.20;;;5.90;99.90;;;;;;4977449;28;20138;-73
2023/03/27 03:35:23;;;;;;;3.67;1.40;;;5.90;99.90;;;;;;4958292;28;20499;-73
2023/03/27 03:37:50;;;;;;;6.10;1.35;;;5.90;99.90;;;;;;4979216;28;20567;-72
2023/03/27 03:40:17;;;;;;;5.90;1.52;;;5.90;99.90;;;;;;4979922;28;20053;-73
2023/03/27 03:42:46;;;;;;;5.32;0.95;;;6.00;99.90;;;;;;4961001;28;20030;-72
2023/03/27 03:45:12;;;;;;;7.95;0.85;;;5.90;99.90;;;;;;4975196;28;20030;-73
2023/03/27 03:47:38;;;;;;;4.25;1.02;;;5.90;99.90;;;;;;4953840;28;20457;-73
2023/03/27 03:50:04;;;;;;;7.35;1.25;;;5.90;99.90;;;;;;4972775;28;20406;-73
2023/03/27 03:52:30;;;;;;;5.05;1.13;;;5.80;99.90;;;;;;4947427;28;20035;-74
2023/03/27 03:54:56;;;;;;;3.25;1.27;;;5.70;99.90;;;;;;4942475;28;20038;-73
2023/03/27 03:57:21;;;;;;;4.30;1.13;;;5.80;99.90;;;;;;4976828;28;20365;-72
2023/03/27 03:59:47;;;;;;;4.80;1.13;;;5.80;99.90;;;;;;4961362;28;20473;-73
2023/03/27 04:02:27;;;;;;;4.88;1.35;;;5.80;99.90;;;;;;4955340;28;20066;-73
2023/03/27 04:05:03;;;;;;;3.58;1.10;;;5.80;99.90;;;;;;4972148;28;20033;-73
2023/03/27 04:07:32;;;;;;;6.88;1.33;;;5.70;99.90;;;;;;4980692;28;20062;-73
2023/03/27 04:10:00;;;;;;;4.50;1.48;;;5.70;99.90;;;;;;4958964;28;20101;-73
2023/03/27 04:12:26;;;;;;;4.22;1.20;;;5.70;99.90;;;;;;4977895;28;20109;-73
2023/03/27 04:14:53;;;;;;;5.00;1.23;;;5.60;99.90;;;;;;4976178;28;20550;-73
2023/03/27 04:17:19;;;;;;;5.20;1.17;;;5.50;99.90;;;;;;4960041;28;20081;-73
2023/03/27 04:19:49;;;;;;;4.07;1.10;;;5.50;99.90;;;;;;4974692;28;20027;-73
2023/03/27 04:22:16;;;;;;;7.38;1.23;;;5.40;99.90;;;;;;4958907;28;20134;-73
2023/03/27 04:24:43;;;;;;;6.65;1.20;;;5.40;99.90;;;;;;4977047;28;20509;-73
2023/03/27 04:27:10;;;;;;;2.58;0.93;;;5.40;99.90;;;;;;4968282;28;20035;-73
2023/03/27 04:29:35;;;;;;;8.82;1.65;;;5.30;99.90;;;;;;4957420;28;20524;-73
2023/03/27 04:32:04;;;;;;;7.88;1.30;;;5.20;99.90;;;;;;4953190;28;20034;-73
2023/03/27 04:34:30;;;;;;;6.38;1.20;;;5.20;99.90;;;;;;4948473;28;20469;-73
2023/03/27 04:36:56;;;;;;;3.08;1.35;;;5.10;99.90;;;;;;4973949;28;20037;-72
2023/03/27 04:39:22;;;;;;;6.28;1.10;;;5.10;99.90;;;;;;4975137;28;20044;-73
2023/03/27 04:41:48;;;;;;;6.57;1.30;;;5.10;99.90;;;;;;4972859;28;20026;-73
2023/03/27 04:44:17;;;;;;;6.32;1.48;;;5.10;99.90;;;;;;4969533;28;20053;-73
2023/03/27 04:46:43;;;;;;;6.18;1.17;;;5.00;99.90;;;;;;4957963;28;20402;-72
2023/03/27 04:49:09;;;;;;;9.48;1.33;;;5.00;99.90;;;;;;4953936;28;20038;-73
2023/03/27 04:51:35;;;;;;;5.53;1.50;;;5.00;99.90;;;;;;4956486;28;20034;-73
2023/03/27 04:54:03;;;;;;;5.97;1.35;;;5.00;99.90;;;;;;4974472;28;20410;-73
2023/03/27 04:56:29;;;;;;;1.98;1.20;;;5.00;99.90;;;;;;4975206;28;20122;-73
2023/03/27 04:58:55;;;;;;;3.78;1.00;;;5.00;99.90;;;;;;4976145;28;20190;-73
2023/03/27 05:01:21;;;;;;;4.55;1.30;;;4.90;99.90;;;;;;4957038;28;20053;-74
2023/03/27 05:03:48;;;;;;;5.55;1.80;;;4.90;99.90;;;;;;4959316;28;20118;-73
2023/03/27 05:06:14;;;;;;;7.45;1.40;;;4.90;99.90;;;;;;4975396;28;20062;-73
2023/03/27 05:08:40;;;;;;;4.35;1.30;;;4.90;99.90;;;;;;4974822;28;20100;-72
2023/03/27 05:11:06;;;;;;;5.85;1.20;;;4.90;99.90;;;;;;4977071;28;20122;-73
2023/03/27 05:13:32;;;;;;;6.25;1.17;;;4.90;99.90;;;;;;4957877;28;20394;-73
2023/03/27 05:16:00;;;;;;;5.78;1.30;;;4.90;99.90;;;;;;4957494;28;20399;-72
2023/03/27 05:18:29;;;;;;;5.03;1.48;;;4.90;99.90;;;;;;4952841;28;20041;-73
2023/03/27 05:20:58;;;;;;;9.40;1.60;;;4.80;99.90;;;;;;4973119;28;20081;-73
2023/03/27 05:23:27;;;;;;;4.05;1.30;;;4.70;99.90;;;;;;4969661;28;20034;-73
2023/03/27 05:25:55;;;;;;;5.95;1.45;;;4.70;99.90;;;;;;4976372;28;20057;-73
2023/03/27 05:28:21;;;;;;;4.65;1.40;;;4.70;99.90;;;;;;4957524;28;20477;-73
2023/03/27 05:30:47;;;;;;;6.43;1.70;;;4.70;99.90;;;;;;4964403;28;20030;-73
2023/03/27 05:33:15;;;;;;;6.53;1.50;;;4.60;99.90;;;;;;4949483;28;20042;-73
2023/03/27 05:35:41;;;;;;;3.92;1.92;;;4.60;99.90;;;;;;4949505;28;20490;-73
2023/03/27 05:38:07;;;;;;;12.68;2.03;;;4.50;99.90;;;;;;4975873;28;20034;-73
2023/03/27 05:40:33;;;;;;;9.45;1.65;;;4.40;99.90;;;;;;4959106;28;20022;-73
2023/03/27 05:43:00;;;;;;;6.05;1.98;;;4.40;99.90;;;;;;4975226;28;20027;-72
2023/03/27 05:45:26;;;;;;;4.57;1.58;;;4.40;99.90;;;;;;4961711;28;21072;-73
2023/03/27 05:47:56;;;;;;;2.40;1.30;;;4.40;99.90;;;;;;4975929;28;20477;-73
2023/03/27 05:50:34;;;;;;;6.85;2.08;;;4.40;99.90;;;;;;4953481;28;20038;-73
2023/03/27 05:53:09;;;;;;;3.70;1.70;;;4.50;99.90;;;;;;4960129;28;20031;-73
2023/03/27 05:55:36;;;;;;;5.78;1.88;;;4.50;99.90;;;;;;4942352;28;20040;-73
2023/03/27 05:58:02;;;;;;;7.13;2.00;;;4.50;99.90;;;;;;4955444;28;20278;-73
2023/03/27 06:00:31;;;;;;;7.60;1.85;;;4.50;99.90;;;;;;4955142;28;20056;-73
2023/03/27 06:02:59;;;;;;;4.57;1.50;;;4.50;99.90;;;;;;4976404;28;20042;-74
2023/03/27 06:05:28;;;;;;;5.45;1.45;;;4.50;99.90;;;;;;4949105;28;20035;-73
2023/03/27 06:07:56;;;;;;;96.60;43.75;;;4.60;99.90;;;;;;4972056;28;20034;-73
2023/03/27 06:10:21;;;;;;;19.13;8.30;;;4.70;99.90;;;;;;4970087;28;20033;-74
2023/03/27 06:12:47;;;;;;;44.75;18.27;;;4.80;99.90;;;;;;4957522;28;20037;-73
2023/03/27 06:15:14;;;;;;;28.88;10.50;;;5.00;99.90;;;;;;4969998;28;20033;-73
2023/03/27 06:17:41;;;;;;;20.92;9.18;;;5.40;99.90;;;;;;4961521;28;20157;-73
2023/03/27 06:20:13;;;;;;;14.85;6.00;;;5.70;99.90;;;;;;4943963;28;20414;-73
2023/03/27 06:22:47;;;;;;;8.43;3.42;;;5.90;99.90;;;;;;4951077;28;20117;-74
2023/03/27 06:25:14;;;;;;;10.02;2.63;;;6.10;99.90;;;;;;4942361;28;20506;-73
2023/03/27 06:27:45;;;;;;;14.02;6.45;;;6.50;99.90;;;;;;4965063;28;20097;-74
2023/03/27 06:30:12;;;;;;;11.77;3.30;;;7.20;99.90;;;;;;4949222;28;20030;-74
2023/03/27 06:32:43;;;;;;;8.13;2.47;;;7.50;99.90;;;;;;4963759;28;20038;-73
2023/03/27 06:35:09;;;;;;;3.63;1.65;;;7.80;98.00;;;;;;4970022;28;20141;-74
2023/03/27 06:37:35;;;;;;;8.77;1.33;;;8.10;94.90;;;;;;4968586;28;20446;-74
2023/03/27 06:40:03;;;;;;;3.05;1.10;;;8.30;91.60;;;;;;4974148;28;20026;-75
2023/03/27 06:42:29;;;;;;;129.15;66.57;;;9.50;86.30;;;;;;4952370;28;20049;-73
2023/03/27 06:44:55;;;;;;;27.50;14.57;;;9.50;81.50;;;;;;4966752;28;20037;-72
2023/03/27 06:47:21;;;;;;;21.63;8.45;;;9.90;76.30;;;;;;4955607;28;20030;-73
2023/03/27 06:49:47;;;;;;;6.90;2.10;;;10.00;74.20;;;;;;4956080;28;20529;-74
2023/03/27 06:52:13;;;;;;;8.07;1.90;;;9.80;74.30;;;;;;4974908;28;20546;-74
2023/03/27 06:54:39;;;;;;;4.50;1.20;;;9.70;75.60;;;;;;4957758;28;20320;-74
2023/03/27 06:57:05;;;;;;;4.40;1.15;;;9.50;76.00;;;;;;4975325;28;20309;-73
2023/03/27 06:59:30;;;;;;;3.25;1.10;;;9.40;80.30;;;;;;4974598;28;20443;-73
2023/03/27 07:01:56;;;;;;;7.10;1.30;;;9.30;83.20;;;;;;4969583;28;20121;-73
2023/03/27 07:04:22;;;;;;;4.68;1.05;;;9.40;86.70;;;;;;4944459;28;20029;-73
2023/03/27 07:06:47;;;;;;;2.38;0.90;;;9.60;79.50;;;;;;4970575;28;20033;-73
2023/03/27 07:09:13;;;;;;;5.07;1.40;;;10.40;75.80;;;;;;4970125;28;20049;-74
2023/03/27 07:11:39;;;;;;;5.00;1.35;;;10.60;67.40;;;;;;4949625;28;20109;-74
2023/03/27 07:14:05;;;;;;;5.45;1.10;;;10.70;64.50;;;;;;4961869;28;20035;-75
2023/03/27 07:16:30;;;;;;;6.00;1.15;;;10.70;62.90;;;;;;4968670;28;20034;-75
2023/03/27 07:18:56;;;;;;;4.40;0.88;;;10.70;60.80;;;;;;4940660;28;20026;-75
2023/03/27 07:21:22;;;;;;;6.70;1.15;;;10.60;62.60;;;;;;4970261;28;20175;-74
2023/03/27 07:23:47;;;;;;;4.10;1.05;;;10.50;65.00;;;;;;4955922;28;20041;-75
2023/03/27 07:26:13;;;;;;;4.20;1.17;;;10.30;64.20;;;;;;4939855;28;20125;-75
2023/03/27 07:28:39;;;;;;;9.27;1.30;;;10.10;69.30;;;;;;4971217;28;20046;-74
2023/03/27 07:31:09;;;;;;;5.53;1.00;;;10.20;73.30;;;;;;4963625;28;20040;-75
2023/03/27 07:33:35;;;;;;;4.23;1.23;;;10.40;67.90;;;;;;4963186;28;20123;-74
2023/03/27 07:36:06;;;;;;;5.32;1.30;;;10.50;66.00;;;;;;4956431;28;20359;-75
2023/03/27 07:38:32;;;;;;;5.53;1.10;;;10.90;64.70;;;;;;4937865;28;20041;-75
2023/03/27 07:41:02;;;;;;;2.35;0.85;;;11.30;61.30;;;;;;4958281;28;20030;-74
2023/03/27 07:43:28;;;;;;;8.15;1.73;;;11.70;58.90;;;;;;4959164;28;20033;-74
2023/03/27 07:45:54;;;;;;;5.85;1.40;;;12.10;59.20;;;;;;4955429;28;21015;-75
2023/03/27 07:48:20;;;;;;;3.75;1.17;;;12.20;55.80;;;;;;4944345;28;20124;-75
2023/03/27 07:50:46;;;;;;;4.20;1.25;;;12.30;58.60;;;;;;4948103;28;20470;-77
2023/03/27 07:53:12;;;;;;;4.50;1.02;;;12.40;57.80;;;;;;4955337;28;20041;-73
2023/03/27 07:55:40;;;;;;;4.43;1.23;;;12.50;56.30;;;;;;4951191;28;20234;-74
2023/03/27 07:58:06;;;;;;;5.03;1.17;;;12.80;55.40;;;;;;4960618;28;20035;-73
2023/03/27 08:00:34;;;;;;;5.57;1.10;;;13.40;53.60;;;;;;4962046;28;20049;-75
2023/03/27 08:03:08;;;;;;;4.68;0.98;;;13.90;53.40;;;;;;4948542;28;20090;-73
2023/03/27 08:05:35;;;;;;;4.60;1.00;;;13.70;49.10;;;;;;4958563;28;20427;-73
2023/03/27 08:08:02;;;;;;;4.03;1.10;;;14.10;48.80;;;;;;4958376;28;20035;-73
2023/03/27 08:10:28;;;;;;;4.70;0.98;;;14.60;50.30;;;;;;4964317;28;20352;-73
2023/03/27 08:12:53;;;;;;;8.80;1.25;;;14.90;47.70;;;;;;4951284;28;20041;-73
2023/03/27 08:15:19;;;;;;;3.47;0.82;;;14.90;46.60;;;;;;4966019;28;20038;-73
2023/03/27 08:17:44;;;;;;;2.03;0.70;;;15.80;45.40;;;;;;4965498;28;20066;-72
2023/03/27 08:20:14;;;;;;;5.55;1.30;;;16.70;45.00;;;;;;4963435;28;20423;-73
2023/03/27 08:22:40;;;;;;;8.05;1.30;;;17.00;42.80;;;;;;4967334;28;20064;-73
2023/03/27 08:25:07;;;;;;;5.78;0.88;;;17.80;43.60;;;;;;4962191;28;20073;-73
2023/03/27 08:27:33;;;;;;;7.80;1.20;;;18.40;42.10;;;;;;4960683;28;20121;-73
2023/03/27 08:30:00;;;;;;;4.10;1.50;;;17.90;40.50;;;;;;4963670;28;20474;-75
2023/03/27 08:32:26;;;;;;;3.15;1.30;;;17.10;40.50;;;;;;4962176;28;20406;-73
2023/03/27 08:34:52;;;;;;;5.85;1.42;;;17.30;40.90;;;;;;4952499;28;20041;-75
2023/03/27 08:37:18;;;;;;;6.50;1.30;;;16.70;40.50;;;;;;4949391;28;20502;-75
2023/03/27 08:39:45;;;;;;;5.20;1.50;;;16.90;41.30;;;;;;4959707;28;20485;-75
2023/03/27 08:42:26;;;;;;;5.80;1.17;;;15.50;43.50;;;;;;4953607;28;20298;-77
2023/03/27 08:44:53;;;;;;;4.60;1.08;;;15.30;45.20;;;;;;4948134;28;20038;-75
2023/03/27 08:47:37;;;;;;;2.97;1.05;;;15.80;44.40;;;;;;4953192;28;20037;-75
2023/03/27 08:50:11;;;;;;;2.80;1.05;;;15.80;45.70;;;;;;3915585;28;10000970;-75
2023/03/27 08:52:38;;;;;;;7.35;1.40;;;16.60;41.30;;;;;;4934918;28;20047;-75
2023/03/27 08:55:19;;;;;;;2.63;0.77;;;17.50;43.90;;;;;;4935245;28;20043;-75
2023/03/27 08:57:45;;;;;;;9.40;1.10;;;18.40;40.10;;;;;;4934184;28;20031;-75
2023/03/27 09:00:20;;;;;;;4.70;0.88;;;18.80;37.40;;;;;;4941135;28;20053;-75
2023/03/27 09:02:50;;;;;;;3.13;1.00;;;19.10;36.80;;;;;;4950345;28;20055;-75
2023/03/27 09:05:22;;;;;;;3.63;0.70;;;18.30;37.60;;;;;;4933916;28;20133;-75
2023/03/27 09:07:56;;;;;;;2.55;0.63;;;18.40;38.30;;;;;;4949590;28;20042;-75
2023/03/27 09:10:42;;;;;;;4.20;0.80;;;18.50;37.70;;;;;;4926994;28;20046;-76
2023/03/27 09:13:21;;;;;;;4.60;0.70;;;18.60;38.30;;;;;;4944675;28;20574;-75
2023/03/27 09:16:20;;;;;;;4.22;0.60;;;18.10;38.10;;;;;;4938420;28;20174;-75
2023/03/27 09:19:13;;;;;;;2.78;0.60;;;18.60;37.30;;;;;;4932027;28;20633;-74
2023/03/27 09:21:41;;;;;;;2.63;0.70;;;18.90;38.50;;;;;;4951326;28;20122;-74
2023/03/27 09:24:16;;;;;;;3.35;0.60;;;18.90;36.20;;;;;;4965405;28;20030;-74
2023/03/27 09:26:42;;;;;;;3.22;0.60;;;19.60;35.10;;;;;;4967935;28;20632;-75
2023/03/27 09:29:21;;;;;;;1.75;0.50;;;19.90;35.00;;;;;;4969890;28;20042;-75
2023/03/27 09:31:51;;;;;;;2.15;0.40;;;21.10;35.70;;;;;;4970959;28;20710;-76
2023/03/27 09:34:29;;;;;;;3.80;0.70;;;21.00;32.00;;;;;;4954850;28;20190;-74
2023/03/27 09:36:57;;;;;;;2.72;0.30;;;21.50;31.80;;;;;;4969117;28;20045;-75
2023/03/27 09:39:28;;;;;;;1.52;0.43;;;22.90;30.00;;;;;;4953932;28;20026;-75
2023/03/27 09:41:58;;;;;;;2.80;0.60;;;23.50;30.80;;;;;;4971273;28;20065;-75
2023/03/27 09:44:31;;;;;;;3.38;0.70;;;23.50;27.60;;;;;;4950949;28;20034;-75
2023/03/27 09:47:09;;;;;;;3.83;0.50;;;23.50;27.40;;;;;;4967473;28;20045;-75
2023/03/27 09:49:39;;;;;;;2.35;0.50;;;23.90;28.90;;;;;;4968973;28;20057;-76
2023/03/27 09:52:06;;;;;;;2.67;0.60;;;25.00;27.40;;;;;;4968020;28;20038;-75
2023/03/27 09:54:50;;;;;;;2.80;0.68;;;25.90;27.00;;;;;;4951863;28;20030;-75
2023/03/27 09:57:16;;;;;;;4.82;0.68;;;26.00;27.40;;;;;;4973085;28;20336;-75
2023/03/27 10:00:01;;;;;;;1.80;0.40;;;26.00;27.50;;;;;;4974537;28;20057;-75
2023/03/27 10:02:29;;;;;;;2.78;0.50;;;25.00;26.40;;;;;;4953791;28;20057;-74
2023/03/27 10:05:13;;;;;;;2.83;0.60;;;23.30;25.30;;;;;;4953862;28;20121;-75
2023/03/27 10:07:40;;;;;;;3.17;0.65;;;23.50;29.00;;;;;;4954201;28;20034;-75
2023/03/27 10:10:12;;;;;;;3.75;0.45;;;23.70;27.70;;;;;;4944028;28;20049;-72
2023/03/27 10:12:40;;;;;;;2.42;0.65;;;22.60;27.60;;;;;;4958325;28;20481;-75
2023/03/27 10:15:42;;;;;;;2.58;0.60;;;22.20;27.10;;;;;;4966959;28;20128;-74
2023/03/27 10:18:28;;;;;;;1.10;0.50;;;22.70;28.60;;;;;;4960419;28;20050;-75
2023/03/27 10:20:57;;;;;;;4.72;0.70;;;21.90;26.00;;;;;;4951926;28;20382;-75
2023/03/27 10:23:26;;;;;;;2.45;0.50;;;21.40;28.80;;;;;;4942021;28;20124;-74
2023/03/27 10:25:56;;;;;;;1.67;0.50;;;20.90;27.80;;;;;;4950779;28;20037;-71
2023/03/27 10:28:26;;;;;;;1.93;0.50;;;20.60;28.80;;;;;;4972926;28;20046;-75
2023/03/27 10:31:27;;;;;;;2.92;0.70;;;20.10;28.60;;;;;;4971171;28;20039;-75
2023/03/27 10:33:52;;;;;;;1.93;0.80;;;19.80;28.70;;;;;;4945963;28;20038;-75
2023/03/27 10:36:20;;;;;;;3.22;0.60;;;19.30;29.40;;;;;;4966783;28;20288;-75
2023/03/27 10:38:55;;;;;;;2.47;0.60;;;20.50;32.00;;;;;;4965637;28;20041;-74
2023/03/27 10:41:22;;;;;;;2.83;0.57;;;24.30;28.40;;;;;;4956091;28;20053;-75
2023/03/27 10:43:49;;;;;;;3.70;0.82;;;28.60;25.10;;;;;;4937380;28;20581;-75
2023/03/27 10:46:21;;;;;;;2.58;0.60;;;31.60;22.00;;;;;;4945066;28;20053;-74
2023/03/27 10:49:24;;;;;;;4.22;0.57;;;32.40;21.90;;;;;;4959953;28;20038;-75
2023/03/27 10:51:50;;;;;;;2.58;0.70;;;31.10;20.20;;;;;;4958050;28;20026;-74
2023/03/27 10:54:35;;;;;;;3.38;0.80;;;29.60;19.90;;;;;;4736128;28;10000568;-74
2023/03/27 10:57:07;;;;;;;2.80;0.70;;;28.30;22.60;;;;;;4958178;28;21012;-73
2023/03/27 10:59:49;;;;;;;1.90;0.55;;;27.10;23.00;;;;;;4958671;28;20023;-74
2023/03/27 11:02:28;;;;;;;2.47;0.50;;;25.00;24.20;;;;;;4957300;28;20061;-74
2023/03/27 11:05:36;;;;;;;1.42;0.55;;;22.50;26.30;;;;;;4966518;28;20578;-74
2023/03/27 11:08:12;;;;;;;2.97;0.77;;;20.90;28.00;;;;;;4968668;28;20039;-74
2023/03/27 11:10:45;;;;;;;2.15;0.50;;;21.40;27.80;;;;;;4958405;28;21770;-74
2023/03/27 11:13:22;;;;;;;2.30;0.60;;;21.20;26.20;;;;;;4940746;28;20038;-76
2023/03/27 11:16:13;;;;;;;3.45;0.70;;;21.00;26.20;;;;;;4963670;28;20030;-74
2023/03/27 11:18:48;;;;;;;2.30;0.55;;;23.00;28.80;;;;;;4945806;28;20027;-75
2023/03/27 11:21:22;;;;;;;2.05;0.60;;;24.70;24.40;;;;;;4963659;28;20070;-75
2023/03/27 11:24:02;;;;;;;2.33;0.60;;;27.30;23.30;;;;;;4963946;28;20071;-76
2023/03/27 11:26:50;;;;;;;2.35;0.60;;;27.50;22.20;;;;;;4975847;28;20038;-74
2023/03/27 11:29:24;;;;;;;2.80;0.60;;;26.70;22.10;;;;;;4971624;28;20050;-74
2023/03/27 11:31:52;;;;;;;2.20;0.60;;;25.30;23.60;;;;;;4967682;28;20041;-74
2023/03/27 11:34:43;;;;;;;1.45;0.57;;;23.70;25.10;;;;;;4971654;28;20034;-74
2023/03/27 11:37:21;;;;;;;2.20;0.60;;;21.40;25.40;;;;;;4970932;28;20035;-74
2023/03/27 11:39:55;;;;;;;1.70;0.57;;;20.10;28.50;;;;;;4975639;28;20057;-75
2023/03/27 11:42:41;;;;;;;1.38;0.43;;;18.60;30.00;;;;;;4978066;28;20385;-74
2023/03/27 11:45:12;;;;;;;3.60;0.70;;;17.40;32.60;;;;;;4971118;28;20037;-75
2023/03/27 11:47:40;;;;;;;4.07;1.17;;;15.90;30.50;;;;;;4977550;28;20081;-74
2023/03/27 11:50:21;;;;;;;4.18;0.77;;;15.70;33.10;;;;;;4973370;28;20033;-74
2023/03/27 11:52:58;;;;;;;3.00;0.60;;;16.60;38.90;;;;;;4955014;28;20038;-74
2023/03/27 11:55:55;;;;;;;4.25;0.88;;;17.70;33.20;;;;;;4968836;28;20038;-75
2023/03/27 11:58:50;;;;;;;3.40;0.90;;;19.10;30.60;;;;;;4952295;28;20031;-74
2023/03/27 12:01:48;;;;;;;2.58;0.85;;;19.50;31.30;;;;;;4970053;28;20178;-74
2023/03/27 12:04:54;;;;;;;2.40;0.73;;;19.60;31.60;;;;;;4945157;28;20031;-74
2023/03/27 12:08:05;;;;;;;4.47;0.80;;;19.70;34.00;;;;;;4973872;28;20049;-74
2023/03/27 12:10:34;;;;;;;4.65;0.70;;;18.90;28.40;;;;;;4944604;28;20050;-74
2023/03/27 12:13:25;;;;;;;4.10;0.80;;;18.60;29.40;;;;;;4978820;28;20030;-74
2023/03/27 12:16:05;;;;;;;2.53;0.90;;;18.00;31.00;;;;;;4980214;28;20030;-75
2023/03/27 12:18:37;;;;;;;2.97;0.88;;;17.30;31.90;;;;;;4971317;28;20824;-74
2023/03/27 12:21:28;;;;;;;2.65;0.90;;;16.20;33.90;;;;;;4975793;28;20030;-74
2023/03/27 12:24:27;;;;;;;4.95;0.90;;;15.70;36.40;;;;;;4968198;28;20022;-74
2023/03/27 12:27:12;;;;;;;1.75;0.60;;;14.50;38.50;;;;;;4959951;28;20110;-74
2023/03/27 12:30:05;;;;;;;3.05;0.85;;;14.50;35.30;;;;;;4961832;28;20118;-75
2023/03/27 12:33:15;;;;;;;6.38;0.70;;;14.20;34.90;;;;;;4964789;28;20184;-75
2023/03/27 12:35:47;;;;;;;2.20;0.70;;;14.50;40.40;;;;;;4965568;28;20042;-74
2023/03/27 12:38:40;;;;;;;3.13;0.70;;;14.90;39.30;;;;;;4962815;28;20066;-74
2023/03/27 12:41:12;;;;;;;3.75;1.00;;;15.30;36.20;;;;;;4962185;28;20097;-75
2023/03/27 12:43:43;;;;;;;3.58;1.08;;;15.60;36.00;;;;;;4962240;28;20031;-74
2023/03/27 12:46:25;;;;;;;3.60;1.00;;;15.30;33.10;;;;;;4962568;28;20030;-74
2023/03/27 12:48:53;;;;;;;3.15;0.70;;;15.30;37.90;;;;;;4959175;28;20550;-74
2023/03/27 12:51:36;;;;;;;1.95;0.60;;;15.40;35.10;;;;;;4952005;28;20030;-75
2023/03/27 12:54:25;;;;;;;4.07;0.95;;;15.40;37.70;;;;;;4964028;28;20026;-74
2023/03/27 12:57:07;;;;;;;3.35;0.77;;;15.40;35.00;;;;;;4949225;28;20048;-74
2023/03/27 12:59:47;;;;;;;4.40;1.00;;;15.20;34.30;;;;;;4962012;28;20242;-74
2023/03/27 13:03:08;;;;;;;3.35;0.90;;;14.90;35.80;;;;;;4960827;28;20077;-74
2023/03/27 13:05:48;;;;;;;4.47;0.93;;;15.20;35.50;;;;;;4918068;28;20490;-74
2023/03/27 13:08:40;;;;;;;4.32;0.90;;;15.20;34.40;;;;;;4960812;28;20085;-74
2023/03/27 13:11:11;;;;;;;2.20;0.80;;;15.40;35.60;;;;;;4974031;28;20501;-75
2023/03/27 13:13:56;;;;;;;2.78;0.70;;;15.30;34.20;;;;;;4961775;28;20038;-75
2023/03/27 13:16:55;;;;;;;2.30;0.75;;;15.50;37.30;;;;;;4978861;28;20037;-75
2023/03/27 13:19:24;;;;;;;2.35;0.77;;;15.60;35.70;;;;;;4963384;28;20675;-75
2023/03/27 13:22:28;;;;;;;2.33;0.80;;;15.50;35.30;;;;;;4962006;28;20813;-75